createdAt,value
2023-03-04T00:01:23.390Z,50.55
2023-03-04T00:03:26.626Z,47.40
2023-03-04T00:05:31.218Z,43.58
2023-03-04T00:07:34.282Z,48.20
2023-03-04T00:09:37.681Z,44.85
2023-03-04T00:11:40.854Z,48.95
2023-03-04T00:13:44.054Z,47.75
2023-03-04T00:15:47.169Z,43.47
2023-03-04T00:17:51.694Z,46.20
2023-03-04T00:19:54.855Z,50.88
2023-03-04T00:21:59.790Z,52.00
2023-03-04T00:24:02.905Z,47.72
2023-03-04T00:26:06.259Z,48.40
2023-03-04T00:28:09.429Z,46.17
2023-03-04T00:30:13.196Z,41.70
2023-03-04T00:32:18.302Z,50.42
2023-03-04T00:34:22.846Z,51.15
2023-03-04T00:36:26.210Z,50.70
2023-03-04T00:38:32.023Z,53.33
2023-03-04T00:40:35.244Z,64.75
2023-03-04T00:42:38.424Z,48.85
2023-03-04T00:44:41.575Z,59.28
2023-03-04T00:46:44.718Z,56.38
2023-03-04T00:48:47.879Z,58.25
2023-03-04T00:50:53.990Z,55.45
2023-03-04T00:52:57.166Z,56.75
2023-03-04T00:55:00.273Z,47.50
2023-03-04T00:57:03.432Z,48.90
2023-03-04T00:59:06.531Z,41.78
2023-03-04T01:01:09.703Z,48.40
2023-03-04T01:03:12.932Z,48.95
2023-03-04T01:05:16.244Z,46.35
2023-03-04T01:07:20.747Z,42.30
2023-03-04T01:09:23.851Z,42.97
2023-03-04T01:11:27.029Z,44.65
2023-03-04T01:13:30.191Z,48.03
2023-03-04T01:15:33.278Z,48.58
2023-03-04T01:17:36.428Z,46.25
2023-03-04T01:19:39.538Z,46.30
2023-03-04T01:21:42.656Z,42.33
2023-03-04T01:23:47.302Z,49.08
2023-03-04T01:25:50.453Z,47.35
2023-03-04T01:27:55.297Z,51.03
2023-03-04T01:29:58.434Z,41.15
2023-03-04T01:32:01.569Z,42.30
2023-03-04T01:34:04.650Z,48.03
2023-03-04T01:36:08.174Z,43.42
2023-03-04T01:38:11.360Z,50.30
2023-03-04T01:40:16.192Z,43.50
2023-03-04T01:42:21.651Z,42.83
2023-03-04T01:44:24.837Z,43.95
2023-03-04T01:46:28.486Z,39.95
2023-03-04T01:48:34.078Z,41.55
2023-03-04T01:50:37.258Z,40.58
2023-03-04T01:52:41.102Z,41.50
2023-03-04T01:54:44.519Z,42.47
2023-03-04T01:56:50.328Z,43.90
2023-03-04T01:59:12.189Z,44.95
2023-03-04T02:01:15.706Z,42.60
2023-03-04T02:03:20.657Z,41.55
2023-03-04T02:05:24.720Z,42.10
2023-03-04T02:07:27.964Z,41.00
2023-03-04T02:09:31.886Z,40.45
2023-03-04T02:11:36.334Z,40.50
2023-03-04T02:13:40.845Z,39.60
2023-03-04T02:15:45.421Z,38.13
2023-03-04T02:17:48.785Z,42.72
2023-03-04T02:19:56.382Z,45.30
2023-03-04T02:21:59.574Z,39.65
2023-03-04T02:24:11.167Z,42.15
2023-03-04T02:26:17.269Z,44.35
2023-03-04T02:28:22.357Z,45.08
2023-03-04T02:30:26.396Z,40.90
2023-03-04T02:32:29.591Z,41.83
2023-03-04T02:34:34.704Z,40.83
2023-03-04T02:36:37.918Z,41.38
2023-03-04T02:38:41.173Z,37.00
2023-03-04T02:40:47.966Z,38.35
2023-03-04T02:42:52.590Z,39.65
2023-03-04T02:45:01.087Z,42.53
2023-03-04T02:47:05.230Z,43.83
2023-03-04T02:49:08.293Z,38.00
2023-03-04T02:51:11.443Z,44.75
2023-03-04T02:53:15.383Z,37.45
2023-03-04T02:55:18.694Z,41.25
2023-03-04T02:57:22.314Z,41.33
2023-03-04T02:59:30.994Z,39.90
2023-03-04T03:01:34.046Z,39.88
2023-03-04T03:03:37.453Z,45.35
2023-03-04T03:05:41.098Z,38.47
2023-03-04T03:07:44.724Z,44.30
2023-03-04T03:09:47.831Z,43.40
2023-03-04T03:11:50.894Z,41.15
2023-03-04T03:13:54.071Z,38.80
2023-03-04T03:15:58.859Z,41.50
2023-03-04T03:18:02.224Z,43.60
2023-03-04T03:20:06.443Z,37.85
2023-03-04T03:22:09.634Z,36.60
2023-03-04T03:24:12.733Z,40.15
2023-03-04T03:26:16.268Z,45.22
2023-03-04T03:28:19.416Z,40.25
2023-03-04T03:30:22.739Z,41.30
2023-03-04T03:32:27.589Z,43.15
2023-03-04T03:34:30.914Z,44.45
2023-03-04T03:36:34.191Z,41.20
2023-03-04T03:38:37.535Z,43.45
2023-03-04T03:40:40.648Z,44.72
2023-03-04T03:42:43.758Z,42.92
2023-03-04T03:44:46.877Z,46.75
2023-03-04T03:46:49.970Z,38.75
2023-03-04T03:48:54.546Z,50.20
2023-03-04T03:50:57.628Z,49.70
2023-03-04T03:53:01.024Z,39.03
2023-03-04T03:55:04.426Z,39.45
2023-03-04T03:57:07.695Z,42.80
2023-03-04T03:59:11.117Z,41.13
2023-03-04T04:01:14.285Z,37.92
2023-03-04T04:03:17.884Z,34.70
2023-03-04T04:05:22.348Z,36.95
2023-03-04T04:07:25.474Z,39.92
2023-03-04T04:09:28.515Z,41.83
2023-03-04T04:11:31.597Z,45.00
2023-03-04T04:13:34.631Z,42.95
2023-03-04T04:15:38.786Z,39.40
2023-03-04T04:17:41.891Z,40.80
2023-03-04T04:19:45.006Z,44.55
2023-03-04T04:21:50.730Z,36.38
2023-03-04T04:23:53.811Z,39.45
2023-03-04T04:25:57.272Z,42.40
2023-03-04T04:28:00.534Z,38.53
2023-03-04T04:30:03.685Z,41.20
2023-03-04T04:32:07.414Z,45.40
2023-03-04T04:34:10.610Z,38.67
2023-03-04T04:36:14.760Z,39.45
2023-03-04T04:38:19.211Z,35.35
2023-03-04T04:40:22.383Z,36.40
2023-03-04T04:42:25.642Z,35.67
2023-03-04T04:44:28.942Z,38.20
2023-03-04T04:46:32.038Z,39.38
2023-03-04T04:48:35.156Z,36.70
2023-03-04T04:50:38.244Z,35.72
2023-03-04T04:52:41.891Z,40.72
2023-03-04T04:54:46.403Z,37.75
2023-03-04T04:56:49.513Z,40.17
2023-03-04T04:58:52.813Z,39.92
2023-03-04T05:00:58.076Z,39.97
2023-03-04T05:03:01.208Z,39.80
2023-03-04T05:05:04.533Z,46.25
2023-03-04T05:07:07.643Z,41.35
2023-03-04T05:09:10.755Z,44.63
2023-03-04T05:11:15.244Z,39.30
2023-03-04T05:13:19.559Z,40.42
2023-03-04T05:15:22.714Z,36.97
2023-03-04T05:17:26.772Z,38.97
2023-03-04T05:19:29.848Z,39.00
2023-03-04T05:21:32.992Z,36.95
2023-03-04T05:23:38.046Z,41.53
2023-03-04T05:25:41.269Z,35.63
2023-03-04T05:27:46.171Z,41.20
2023-03-04T05:29:49.559Z,42.92
2023-03-04T05:31:52.689Z,40.38
2023-03-04T05:33:55.812Z,38.20
2023-03-04T05:35:59.217Z,39.08
2023-03-04T05:38:02.425Z,37.85
2023-03-04T05:40:06.685Z,39.03
2023-03-04T05:42:09.838Z,37.85
2023-03-04T05:44:14.337Z,41.42
2023-03-04T05:46:19.301Z,42.45
2023-03-04T05:48:22.990Z,36.95
2023-03-04T05:50:26.213Z,43.80
2023-03-04T05:52:29.396Z,48.28
2023-03-04T05:54:32.442Z,41.03
2023-03-04T05:56:35.676Z,41.05
2023-03-04T05:58:38.840Z,41.72
2023-03-04T06:00:43.539Z,38.05
2023-03-04T06:02:46.782Z,48.42
2023-03-04T06:04:50.019Z,42.60
2023-03-04T06:06:53.047Z,43.10
2023-03-04T06:08:56.192Z,42.35
2023-03-04T06:11:00.211Z,40.95
2023-03-04T06:13:03.284Z,38.00
2023-03-04T06:15:07.134Z,38.60
2023-03-04T06:17:11.540Z,37.38
2023-03-04T06:19:14.655Z,37.67
2023-03-04T06:21:17.811Z,38.22
2023-03-04T06:23:20.911Z,43.88
2023-03-04T06:25:24.340Z,37.05
2023-03-04T06:27:27.673Z,40.88
2023-03-04T06:29:31.370Z,37.78
2023-03-04T06:31:34.593Z,40.67
2023-03-04T06:33:39.139Z,40.55
2023-03-04T06:35:42.179Z,35.95
2023-03-04T06:37:45.300Z,41.17
2023-03-04T06:39:48.282Z,37.22
2023-03-04T06:41:51.453Z,41.20
2023-03-04T06:43:55.119Z,42.90
2023-03-04T06:45:58.199Z,40.92
2023-03-04T06:48:01.228Z,39.08
2023-03-04T06:50:06.780Z,41.17
2023-03-04T06:52:11.305Z,38.15
2023-03-04T06:54:14.405Z,41.90
2023-03-04T06:56:17.820Z,43.20
2023-03-04T06:58:20.874Z,36.97
2023-03-04T07:00:25.016Z,40.70
2023-03-04T07:02:28.153Z,46.33
2023-03-04T07:04:32.679Z,41.90
2023-03-04T07:06:37.178Z,39.28
2023-03-04T07:08:40.844Z,38.28
2023-03-04T07:10:43.935Z,42.45
2023-03-04T07:12:47.211Z,40.65
2023-03-04T07:14:50.314Z,40.65
2023-03-04T07:16:53.331Z,43.38
2023-03-04T07:18:56.486Z,43.53
2023-03-04T07:20:59.566Z,40.20
2023-03-04T07:23:04.188Z,41.88
2023-03-04T07:25:08.353Z,46.45
2023-03-04T07:27:11.453Z,38.45
2023-03-04T07:29:14.813Z,43.42
2023-03-04T07:31:22.559Z,44.08
2023-03-04T07:33:25.740Z,42.75
2023-03-04T07:35:28.817Z,43.80
2023-03-04T07:37:31.874Z,41.50
2023-03-04T07:39:36.284Z,31.60
2023-03-04T07:41:39.424Z,35.92
2023-03-04T07:43:42.570Z,33.75
2023-03-04T07:45:45.777Z,32.42
2023-03-04T07:47:48.943Z,33.45
2023-03-04T07:49:52.090Z,33.55
2023-03-04T07:51:55.254Z,29.38
2023-03-04T07:54:02.100Z,31.50
2023-03-04T07:56:08.450Z,30.23
2023-03-04T07:58:11.533Z,31.65
2023-03-04T08:00:16.958Z,30.73
2023-03-04T08:02:20.145Z,33.00
2023-03-04T08:04:23.456Z,34.92
2023-03-04T08:06:27.052Z,32.10
2023-03-04T08:08:30.198Z,32.92
2023-03-04T08:10:33.316Z,37.13
2023-03-04T08:12:37.836Z,30.88
2023-03-04T08:14:40.900Z,33.30
2023-03-04T08:16:44.174Z,28.75
2023-03-04T08:18:49.154Z,31.13
2023-03-04T08:20:52.391Z,33.13
2023-03-04T08:22:55.618Z,33.00
2023-03-04T08:24:58.812Z,35.33
2023-03-04T08:27:01.958Z,36.72
2023-03-04T08:29:07.311Z,41.75
2023-03-04T08:31:10.669Z,38.25
2023-03-04T08:33:13.877Z,34.38
2023-03-04T08:35:17.319Z,36.83
2023-03-04T08:37:20.504Z,38.47
2023-03-04T08:39:23.636Z,41.85
2023-03-04T08:41:27.554Z,35.25
2023-03-04T08:43:31.002Z,34.78
2023-03-04T08:45:35.439Z,34.20
2023-03-04T08:47:39.438Z,33.08
2023-03-04T08:49:42.606Z,32.35
2023-03-04T08:51:46.209Z,32.38
2023-03-04T08:53:49.362Z,29.27
2023-03-04T08:55:53.749Z,38.45
2023-03-04T08:57:56.917Z,32.38
2023-03-04T09:00:00.310Z,29.48
2023-03-04T09:02:04.862Z,32.53
2023-03-04T09:04:08.105Z,32.63
2023-03-04T09:06:13.174Z,30.98
2023-03-04T09:08:16.544Z,33.03
2023-03-04T09:10:19.658Z,31.27
2023-03-04T09:12:22.750Z,32.25
2023-03-04T09:14:25.844Z,34.35
2023-03-04T09:16:29.798Z,36.25
2023-03-04T09:18:34.386Z,36.25
2023-03-04T09:20:37.505Z,33.58
2023-03-04T09:22:41.126Z,34.72
2023-03-04T09:24:44.226Z,35.25
2023-03-04T09:26:51.531Z,37.05
2023-03-04T09:28:55.907Z,37.50
2023-03-04T09:30:59.228Z,35.47
2023-03-04T09:33:02.424Z,32.15
2023-03-04T09:35:08.031Z,33.83
2023-03-04T09:37:11.087Z,33.25
2023-03-04T09:39:14.228Z,35.80
2023-03-04T09:41:20.022Z,30.40
2023-03-04T09:43:29.407Z,27.42
2023-03-04T09:45:38.556Z,35.33
2023-03-04T09:47:42.090Z,36.53
2023-03-04T09:49:47.163Z,34.15
2023-03-04T09:51:56.898Z,33.55
2023-03-04T09:54:07.792Z,35.38
2023-03-04T09:56:12.130Z,34.38
2023-03-04T09:58:21.261Z,29.38
2023-03-04T10:00:27.759Z,32.30
2023-03-04T10:02:46.526Z,37.10
2023-03-04T10:04:51.515Z,31.50
2023-03-04T10:06:56.300Z,34.40
2023-03-04T10:09:01.562Z,36.47
2023-03-04T10:11:09.256Z,29.65
2023-03-04T10:13:16.145Z,35.30
2023-03-04T10:15:33.780Z,34.67
2023-03-04T10:17:39.077Z,35.70
2023-03-04T10:19:58.152Z,36.88
2023-03-04T10:22:03.314Z,34.70
2023-03-04T10:24:13.578Z,38.05
2023-03-04T10:26:20.837Z,34.47
2023-03-04T10:28:26.627Z,39.05
2023-03-04T10:30:38.195Z,33.10
2023-03-04T10:32:47.054Z,30.70
2023-03-04T10:34:50.179Z,31.55
2023-03-04T10:36:58.006Z,30.70
2023-03-04T10:39:04.924Z,30.30
2023-03-04T10:41:14.049Z,31.02
2023-03-04T10:43:18.728Z,34.40
2023-03-04T10:45:26.370Z,36.28
2023-03-04T10:47:31.441Z,34.17
2023-03-04T10:49:34.640Z,37.75
2023-03-04T10:51:43.862Z,31.65
2023-03-04T10:53:49.030Z,30.67
2023-03-04T10:55:53.605Z,31.90
2023-03-04T10:57:58.186Z,36.67
2023-03-04T11:00:02.458Z,36.95
2023-03-04T11:02:17.061Z,35.13
2023-03-04T11:04:20.267Z,29.52
2023-03-04T11:06:24.528Z,34.03
2023-03-04T11:08:27.648Z,31.98
2023-03-04T11:10:32.940Z,30.70
2023-03-04T11:12:37.441Z,33.25
2023-03-04T11:14:44.323Z,33.45
2023-03-04T11:16:55.048Z,33.42
2023-03-04T11:19:03.886Z,34.40
2023-03-04T11:21:07.924Z,32.22
2023-03-04T11:23:13.848Z,33.88
2023-03-04T11:25:24.999Z,33.95
2023-03-04T11:27:38.785Z,31.23
2023-03-04T11:29:45.260Z,28.80
2023-03-04T11:31:52.494Z,29.98
2023-03-04T11:33:58.441Z,32.13
2023-03-04T11:36:09.579Z,31.65
2023-03-04T11:38:18.541Z,35.08
2023-03-04T11:40:27.419Z,30.52
2023-03-04T11:42:35.932Z,42.70
2023-03-04T11:44:41.512Z,29.38
2023-03-04T11:46:55.583Z,37.35
2023-03-04T11:49:07.772Z,30.15
2023-03-04T11:51:14.862Z,37.55
2023-03-04T11:53:51.992Z,34.33
2023-03-04T11:56:04.376Z,33.05
2023-03-04T11:58:18.062Z,31.35
2023-03-04T12:00:31.384Z,32.53
2023-03-04T12:02:41.490Z,34.80
2023-03-04T12:05:25.459Z,27.50
2023-03-04T12:07:47.009Z,29.75
2023-03-04T12:09:59.283Z,32.28
2023-03-04T12:12:13.526Z,37.38
2023-03-04T12:14:29.393Z,33.38
2023-03-04T12:16:49.877Z,34.83
2023-03-04T12:19:03.691Z,37.95
2023-03-04T12:21:19.280Z,33.03
2023-03-04T12:23:42.055Z,31.05
2023-03-04T12:25:47.250Z,34.88
2023-03-04T12:27:56.714Z,32.53
2023-03-04T12:30:05.688Z,38.38
2023-03-04T12:32:15.981Z,34.13
2023-03-04T12:34:47.827Z,37.17
2023-03-04T12:36:57.340Z,39.10
2023-03-04T12:39:02.251Z,34.03
2023-03-04T12:41:17.604Z,37.45
2023-03-04T12:43:30.560Z,34.13
2023-03-04T12:45:38.329Z,34.60
2023-03-04T12:47:52.473Z,28.98
2023-03-04T12:50:11.501Z,35.83
2023-03-04T12:52:20.467Z,31.20
2023-03-04T12:54:29.032Z,32.10
2023-03-04T12:56:39.241Z,36.78
2023-03-04T12:58:42.579Z,35.20
2023-03-04T13:00:53.107Z,33.13
2023-03-04T13:03:04.388Z,39.85
2023-03-04T13:05:25.192Z,32.83
2023-03-04T13:07:37.879Z,36.38
2023-03-04T13:09:49.456Z,47.22
2023-03-04T13:12:06.299Z,36.88
2023-03-04T13:14:19.524Z,36.03
2023-03-04T13:16:32.773Z,38.58
2023-03-04T13:18:39.470Z,35.97
2023-03-04T13:20:43.312Z,36.88
2023-03-04T13:22:48.219Z,34.65
2023-03-04T13:24:54.895Z,42.42
2023-03-04T13:26:58.208Z,38.78
2023-03-04T13:29:30.604Z,39.33
2023-03-04T13:31:33.847Z,42.20
2023-03-04T13:34:07.416Z,43.88
2023-03-04T13:36:59.172Z,36.60
2023-03-04T13:39:04.618Z,38.83
2023-03-04T13:41:15.054Z,40.30
2023-03-04T13:43:29.649Z,38.40
2023-03-04T13:45:35.749Z,44.47
2023-03-04T13:47:47.989Z,40.78
2023-03-04T13:50:34.774Z,41.22
2023-03-04T13:52:42.401Z,44.20
2023-03-04T13:54:45.541Z,40.83
2023-03-04T13:56:50.500Z,42.67
2023-03-04T13:59:04.036Z,40.42
2023-03-04T14:01:19.399Z,40.30
2023-03-04T14:03:27.264Z,37.00
2023-03-04T14:05:35.874Z,55.63
2023-03-04T14:07:39.688Z,40.80
2023-03-04T14:09:58.672Z,47.38
2023-03-04T14:12:04.672Z,43.30
2023-03-04T14:14:08.763Z,42.35
2023-03-04T14:16:12.214Z,41.45
2023-03-04T14:18:15.403Z,37.63
2023-03-04T14:20:27.361Z,40.63
2023-03-04T14:22:34.318Z,41.95
2023-03-04T14:24:37.473Z,40.45
2023-03-04T14:26:40.644Z,33.78
2023-03-04T14:28:45.814Z,39.85
2023-03-04T14:30:53.811Z,39.22
2023-03-04T14:32:59.391Z,42.55
2023-03-04T14:35:06.232Z,36.50
2023-03-04T14:37:22.395Z,45.72
2023-03-04T14:39:28.749Z,37.70
2023-03-04T14:41:34.994Z,41.90
2023-03-04T14:43:41.107Z,37.03
2023-03-04T14:45:44.873Z,36.95
2023-03-04T14:47:48.619Z,38.95
2023-03-04T14:49:52.204Z,36.42
2023-03-04T14:51:56.409Z,43.58
2023-03-04T14:54:00.062Z,47.88
2023-03-04T14:56:09.032Z,38.72
2023-03-04T14:58:23.092Z,41.33
2023-03-04T15:00:30.170Z,43.70
2023-03-04T15:02:39.755Z,34.40
2023-03-04T15:04:42.929Z,34.25
2023-03-04T15:06:50.899Z,33.55
2023-03-04T15:08:58.806Z,36.38
2023-03-04T15:11:05.573Z,43.65
2023-03-04T15:13:10.338Z,37.17
2023-03-04T15:15:32.430Z,39.15
2023-03-04T15:17:38.836Z,35.70
2023-03-04T15:19:41.981Z,37.50
2023-03-04T15:21:45.061Z,35.22
2023-03-04T15:23:48.210Z,38.70
2023-03-04T15:25:54.346Z,38.28
2023-03-04T15:28:01.121Z,37.33
2023-03-04T15:30:08.798Z,39.75
2023-03-04T15:32:12.449Z,38.53
2023-03-04T15:34:18.081Z,37.67
2023-03-04T15:36:24.159Z,37.17
2023-03-04T15:38:28.176Z,36.83
2023-03-04T15:40:34.103Z,37.47
2023-03-04T15:42:37.414Z,40.53
2023-03-04T15:44:42.218Z,40.95
2023-03-04T15:46:45.375Z,41.22
2023-03-04T15:48:49.895Z,37.80
2023-03-04T15:50:57.573Z,35.38
2023-03-04T15:53:02.958Z,40.75
2023-03-04T15:55:07.320Z,38.22
2023-03-04T15:57:17.741Z,45.00
2023-03-04T15:59:20.932Z,35.47
2023-03-04T16:01:26.198Z,36.42
2023-03-04T16:03:29.783Z,41.92
2023-03-04T16:05:33.171Z,39.47
2023-03-04T16:07:37.470Z,46.08
2023-03-04T16:09:40.765Z,37.75
2023-03-04T16:11:47.368Z,39.10
2023-03-04T16:13:50.781Z,39.85
2023-03-04T16:15:54.443Z,45.65
2023-03-04T16:17:59.704Z,36.55
2023-03-04T16:20:02.835Z,39.28
2023-03-04T16:22:06.276Z,40.25
2023-03-04T16:24:17.045Z,40.42
2023-03-04T16:26:24.965Z,43.35
2023-03-04T16:28:28.223Z,41.00
2023-03-04T16:30:32.163Z,40.75
2023-03-04T16:32:35.555Z,41.58
2023-03-04T16:34:40.166Z,39.35
2023-03-04T16:36:43.509Z,41.20
2023-03-04T16:38:46.772Z,36.95
2023-03-04T16:40:50.598Z,34.50
2023-03-04T16:42:54.205Z,39.40
2023-03-04T16:44:57.510Z,37.25
2023-03-04T16:47:02.495Z,37.35
2023-03-04T16:49:05.794Z,40.28
2023-03-04T16:51:14.702Z,38.50
2023-03-04T16:53:25.193Z,40.08
2023-03-04T16:55:29.905Z,37.58
2023-03-04T16:57:33.036Z,42.83
2023-03-04T16:59:36.177Z,34.03
2023-03-04T17:01:39.571Z,40.30
2023-03-04T17:03:42.958Z,37.05
2023-03-04T17:05:47.762Z,36.15
2023-03-04T17:07:52.462Z,41.47
2023-03-04T17:09:55.679Z,37.10
2023-03-04T17:12:00.078Z,39.50
2023-03-04T17:14:03.821Z,40.17
2023-03-04T17:16:07.447Z,40.30
2023-03-04T17:18:10.647Z,44.08
2023-03-04T17:20:15.861Z,57.00
2023-03-04T17:22:19.131Z,42.95
2023-03-04T17:24:23.666Z,38.80
2023-03-04T17:26:26.805Z,46.67
2023-03-04T17:28:30.423Z,46.47
2023-03-04T17:30:33.588Z,37.90
2023-03-04T17:32:36.769Z,35.80
2023-03-04T17:34:40.121Z,45.15
2023-03-04T17:36:43.255Z,40.92
2023-03-04T17:38:46.895Z,39.22
2023-03-04T17:40:51.449Z,45.40
2023-03-04T17:42:54.760Z,40.60
2023-03-04T17:44:58.024Z,39.55
2023-03-04T17:47:01.180Z,37.33
2023-03-04T17:49:04.386Z,40.50
2023-03-04T17:51:10.728Z,43.90
2023-03-04T17:53:13.879Z,43.28
2023-03-04T17:55:17.376Z,41.75
2023-03-04T17:57:21.980Z,62.13
2023-03-04T17:59:25.461Z,48.80
2023-03-04T18:01:29.222Z,39.95
2023-03-04T18:03:32.363Z,43.88
2023-03-04T18:05:35.888Z,46.67
2023-03-04T18:07:39.070Z,59.05
2023-03-04T18:09:43.141Z,91.30
2023-03-04T18:11:46.427Z,57.50
2023-03-04T18:13:51.175Z,37.63
2023-03-04T18:15:55.414Z,51.53
2023-03-04T18:17:58.898Z,45.72
2023-03-04T18:20:02.967Z,46.65
2023-03-04T18:22:06.873Z,72.38
2023-03-04T18:24:10.811Z,44.90
2023-03-04T18:26:14.659Z,43.28
2023-03-04T18:28:17.896Z,44.10
2023-03-04T18:30:27.199Z,44.33
2023-03-04T18:32:41.774Z,40.92
2023-03-04T18:34:53.292Z,39.88
2023-03-04T18:36:56.757Z,40.35
2023-03-04T18:39:00.492Z,42.10
2023-03-04T18:41:06.872Z,39.75
2023-03-04T18:43:13.744Z,42.17
2023-03-04T18:45:17.848Z,40.38
2023-03-04T18:47:22.997Z,39.83
2023-03-04T18:49:26.437Z,38.80
2023-03-04T18:51:29.921Z,39.75
2023-03-04T18:53:33.191Z,47.78
2023-03-04T18:55:36.546Z,44.33
2023-03-04T18:57:40.080Z,70.63
2023-03-04T18:59:45.458Z,96.50
2023-03-04T19:01:49.259Z,163.13
2023-03-04T19:03:54.532Z,191.05
2023-03-04T19:05:57.860Z,47.38
2023-03-04T19:08:01.207Z,41.53
2023-03-04T19:10:05.038Z,42.88
2023-03-04T19:12:08.362Z,40.88
2023-03-04T19:14:12.073Z,43.63
2023-03-04T19:16:15.698Z,46.33
2023-03-04T19:18:18.959Z,47.00
2023-03-04T19:20:23.619Z,44.97
2023-03-04T19:22:26.825Z,47.13
2023-03-04T19:24:29.998Z,43.20
2023-03-04T19:26:33.260Z,46.63
2023-03-04T19:28:36.385Z,47.65
2023-03-04T19:30:40.113Z,43.72
2023-03-04T19:32:43.453Z,48.25
2023-03-04T19:34:47.194Z,48.08
2023-03-04T19:36:51.691Z,66.43
2023-03-04T19:38:55.945Z,59.03
2023-03-04T19:40:59.742Z,44.85
2023-03-04T19:43:02.932Z,44.55
2023-03-04T19:45:09.561Z,49.08
2023-03-04T19:47:12.831Z,44.70
2023-03-04T19:49:15.947Z,43.55
2023-03-04T19:51:20.911Z,47.80
2023-03-04T19:53:25.553Z,43.17
2023-03-04T19:55:28.806Z,43.60
2023-03-04T19:57:32.422Z,43.30
2023-03-04T19:59:35.944Z,42.63
2023-03-04T20:01:39.361Z,43.13
2023-03-04T20:03:42.650Z,47.13
2023-03-04T20:05:46.436Z,41.38
2023-03-04T20:07:49.546Z,42.00
2023-03-04T20:09:55.754Z,37.90
2023-03-04T20:11:59.584Z,42.80
2023-03-04T20:14:04.497Z,42.60
2023-03-04T20:16:09.285Z,44.65
2023-03-04T20:18:12.458Z,45.08
2023-03-04T20:20:16.466Z,44.53
2023-03-04T20:22:19.671Z,43.10
2023-03-04T20:24:23.293Z,43.08
2023-03-04T20:26:28.315Z,48.35
2023-03-04T20:28:31.730Z,44.25
2023-03-04T20:30:34.965Z,45.08
2023-03-04T20:32:38.165Z,44.83
2023-03-04T20:34:41.331Z,46.67
2023-03-04T20:36:44.549Z,50.60
2023-03-04T20:38:49.176Z,51.42
2023-03-04T20:40:52.396Z,52.17
2023-03-04T20:42:56.873Z,55.08
2023-03-04T20:45:00.009Z,49.58
2023-03-04T20:47:03.343Z,49.15
2023-03-04T20:49:08.018Z,50.90
2023-03-04T20:51:11.257Z,54.72
2023-03-04T20:53:14.672Z,57.78
2023-03-04T20:55:18.205Z,49.35
2023-03-04T20:57:21.491Z,56.65
2023-03-04T20:59:26.146Z,53.60
2023-03-04T21:01:31.046Z,49.70
2023-03-04T21:03:34.224Z,49.05
2023-03-04T21:05:37.527Z,50.40
2023-03-04T21:07:40.675Z,50.03
2023-03-04T21:09:45.278Z,115.80
2023-03-04T21:11:49.624Z,68.43
2023-03-04T21:13:56.472Z,51.42
2023-03-04T21:16:01.190Z,72.05
2023-03-04T21:18:04.451Z,73.53
2023-03-04T21:20:08.890Z,62.38
2023-03-04T21:22:15.308Z,56.85
2023-03-04T21:24:21.271Z,53.53
2023-03-04T21:26:24.710Z,52.80
2023-03-04T21:28:27.963Z,53.92
2023-03-04T21:30:31.107Z,48.97
2023-03-04T21:32:35.729Z,56.58
2023-03-04T21:34:41.747Z,53.33
2023-03-04T21:36:44.948Z,51.90
2023-03-04T21:38:48.937Z,46.67
2023-03-04T21:40:52.849Z,46.80
2023-03-04T21:42:55.959Z,47.35
2023-03-04T21:44:59.080Z,47.22
2023-03-04T21:47:02.244Z,44.25
2023-03-04T21:49:09.088Z,46.85
2023-03-04T21:51:14.073Z,51.05
2023-03-04T21:53:21.541Z,50.38
2023-03-04T21:55:24.746Z,46.78
2023-03-04T21:57:28.004Z,45.53
2023-03-04T21:59:31.234Z,49.42
2023-03-04T22:01:35.438Z,46.42
2023-03-04T22:03:38.753Z,50.58
2023-03-04T22:05:44.939Z,49.40
2023-03-04T22:07:48.068Z,50.97
2023-03-04T22:09:54.190Z,49.22
2023-03-04T22:11:57.241Z,49.55
2023-03-04T22:14:01.752Z,48.75
2023-03-04T22:16:06.555Z,49.05
2023-03-04T22:18:10.856Z,48.75
2023-03-04T22:20:15.541Z,45.30
2023-03-04T22:22:20.301Z,47.25
2023-03-04T22:24:23.908Z,52.85
2023-03-04T22:26:31.808Z,57.95
2023-03-04T22:28:35.220Z,48.58
2023-03-04T22:30:38.578Z,48.95
2023-03-04T22:32:41.783Z,48.30
2023-03-04T22:34:45.148Z,47.35
2023-03-04T22:36:49.300Z,46.55
2023-03-04T22:38:53.829Z,47.00
2023-03-04T22:40:56.984Z,45.60
2023-03-04T22:43:00.179Z,47.55
2023-03-04T22:45:03.562Z,48.35
2023-03-04T22:47:07.150Z,47.75
2023-03-04T22:49:12.519Z,51.47
2023-03-04T22:51:15.796Z,44.53
2023-03-04T22:53:19.136Z,46.60
2023-03-04T22:55:23.828Z,46.47
2023-03-04T22:57:26.936Z,43.03
2023-03-04T22:59:29.972Z,45.22
2023-03-04T23:01:33.318Z,51.40
2023-03-04T23:03:37.281Z,49.25
2023-03-04T23:05:41.369Z,51.63
2023-03-04T23:07:47.620Z,52.15
2023-03-04T23:09:50.759Z,50.72
2023-03-04T23:11:55.601Z,43.28
2023-03-04T23:14:06.515Z,52.63
2023-03-04T23:16:11.573Z,51.70
2023-03-04T23:18:18.236Z,50.70
2023-03-04T23:20:22.845Z,45.45
2023-03-04T23:22:26.066Z,49.75
2023-03-04T23:24:30.358Z,45.33
2023-03-04T23:26:35.857Z,48.95
2023-03-04T23:28:44.593Z,46.17
2023-03-04T23:30:48.350Z,49.80
2023-03-04T23:32:51.851Z,43.97
2023-03-04T23:34:56.262Z,55.45
2023-03-04T23:37:08.825Z,56.97
2023-03-04T23:39:14.212Z,53.92
2023-03-04T23:41:23.047Z,54.92
2023-03-04T23:43:27.467Z,55.70
2023-03-04T23:45:33.284Z,60.75
2023-03-04T23:47:36.674Z,55.15
2023-03-04T23:49:39.996Z,54.22
2023-03-04T23:51:46.309Z,56.92
2023-03-04T23:53:49.694Z,57.63
2023-03-04T23:55:53.044Z,57.72
2023-03-04T23:57:56.382Z,50.20
2023-03-04T23:59:59.579Z,50.85
